sensor_id;sensor_type;location;lat;lon;timestamp;temperature;humidity
37528;DHT22;23372;52.050;4.810;2022-08-01T00:00:20;19.00;99.90
37528;DHT22;23372;52.050;4.810;2022-08-01T00:02:45;19.00;99.90
37528;DHT22;23372;52.050;4.810;2022-08-01T00:05:11;19.00;99.90
37528;DHT22;23372;52.050;4.810;2022-08-01T00:07:37;19.00;99.90
37528;DHT22;23372;52.050;4.810;2022-08-01T00:10:07;19.10;99.90
37528;DHT22;23372;52.050;4.810;2022-08-01T00:12:34;19.00;99.90
37528;DHT22;23372;52.050;4.810;2022-08-01T00:14:59;19.00;99.90
37528;DHT22;23372;52.050;4.810;2022-08-01T00:17:25;19.00;99.90
37528;DHT22;23372;52.050;4.810;2022-08-01T00:19:50;19.00;99.90
37528;DHT22;23372;52.050;4.810;2022-08-01T00:22:16;19.00;99.90
37528;DHT22;23372;52.050;4.810;2022-08-01T00:24:42;19.00;99.90
37528;DHT22;23372;52.050;4.810;2022-08-01T00:27:07;19.00;99.90
37528;DHT22;23372;52.050;4.810;2022-08-01T00:29:33;19.00;99.90
37528;DHT22;23372;52.050;4.810;2022-08-01T00:31:58;19.00;99.90
37528;DHT22;23372;52.050;4.810;2022-08-01T00:34:24;19.10;99.90
37528;DHT22;23372;52.050;4.810;2022-08-01T00:36:49;19.00;99.90
37528;DHT22;23372;52.050;4.810;2022-08-01T00:39:15;18.90;99.90
37528;DHT22;23372;52.050;4.810;2022-08-01T00:41:40;19.00;99.90
37528;DHT22;23372;52.050;4.810;2022-08-01T00:44:06;19.00;99.90
37528;DHT22;23372;52.050;4.810;2022-08-01T00:46:33;19.00;99.90
37528;DHT22;23372;52.050;4.810;2022-08-01T00:48:59;19.00;99.90
37528;DHT22;23372;52.050;4.810;2022-08-01T00:51:25;19.00;99.90
37528;DHT22;23372;52.050;4.810;2022-08-01T00:53:51;19.00;99.90
37528;DHT22;23372;52.050;4.810;2022-08-01T00:56:19;19.00;99.90
37528;DHT22;23372;52.050;4.810;2022-08-01T00:58:45;19.00;99.90
37528;DHT22;23372;52.050;4.810;2022-08-01T01:01:11;19.00;99.90
37528;DHT22;23372;52.050;4.810;2022-08-01T01:03:36;18.90;99.90
37528;DHT22;23372;52.050;4.810;2022-08-01T01:06:17;19.00;99.90
37528;DHT22;23372;52.050;4.810;2022-08-01T01:11:31;18.90;99.90
37528;DHT22;23372;52.050;4.810;2022-08-01T01:14:01;18.90;99.90
37528;DHT22;23372;52.050;4.810;2022-08-01T01:16:30;18.90;99.90
37528;DHT22;23372;52.050;4.810;2022-08-01T01:19:01;19.00;99.90
37528;DHT22;23372;52.050;4.810;2022-08-01T01:27:24;19.00;99.90
37528;DHT22;23372;52.050;4.810;2022-08-01T01:29:55;19.00;99.90
37528;DHT22;23372;52.050;4.810;2022-08-01T01:32:23;19.00;99.90
37528;DHT22;23372;52.050;4.810;2022-08-01T01:34:54;19.00;99.90
37528;DHT22;23372;52.050;4.810;2022-08-01T01:37:23;18.90;99.90
37528;DHT22;23372;52.050;4.810;2022-08-01T01:39:51;18.90;99.90
37528;DHT22;23372;52.050;4.810;2022-08-01T01:42:18;18.90;99.90
37528;DHT22;23372;52.050;4.810;2022-08-01T01:44:45;19.00;99.90
37528;DHT22;23372;52.050;4.810;2022-08-01T01:47:13;18.90;99.90
37528;DHT22;23372;52.050;4.810;2022-08-01T01:49:40;18.90;99.90
37528;DHT22;23372;52.050;4.810;2022-08-01T01:52:07;18.90;99.90
37528;DHT22;23372;52.050;4.810;2022-08-01T01:54:36;18.80;99.90
37528;DHT22;23372;52.050;4.810;2022-08-01T01:57:03;18.90;99.90
37528;DHT22;23372;52.050;4.810;2022-08-01T01:59:32;18.90;99.90
37528;DHT22;23372;52.050;4.810;2022-08-01T02:01:59;18.80;99.90
37528;DHT22;23372;52.050;4.810;2022-08-01T02:04:27;18.90;99.90
37528;DHT22;23372;52.050;4.810;2022-08-01T02:06:53;18.90;99.90
37528;DHT22;23372;52.050;4.810;2022-08-01T02:09:20;18.70;99.90
37528;DHT22;23372;52.050;4.810;2022-08-01T02:11:48;18.70;99.90
37528;DHT22;23372;52.050;4.810;2022-08-01T02:14:15;18.70;99.90
37528;DHT22;23372;52.050;4.810;2022-08-01T02:16:44;18.70;99.90
37528;DHT22;23372;52.050;4.810;2022-08-01T02:19:11;18.80;99.90
37528;DHT22;23372;52.050;4.810;2022-08-01T02:21:51;18.70;99.90
37528;DHT22;23372;52.050;4.810;2022-08-01T02:27:07;18.70;99.90
37528;DHT22;23372;52.050;4.810;2022-08-01T02:29:41;18.60;99.90
37528;DHT22;23372;52.050;4.810;2022-08-01T02:32:12;18.60;99.90
37528;DHT22;23372;52.050;4.810;2022-08-01T02:34:40;18.60;99.90
37528;DHT22;23372;52.050;4.810;2022-08-01T02:37:07;18.60;99.90
37528;DHT22;23372;52.050;4.810;2022-08-01T02:39:35;18.60;99.90
37528;DHT22;23372;52.050;4.810;2022-08-01T02:42:05;18.50;99.90
37528;DHT22;23372;52.050;4.810;2022-08-01T02:44:36;18.50;99.90
37528;DHT22;23372;52.050;4.810;2022-08-01T02:47:03;18.60;99.90
37528;DHT22;23372;52.050;4.810;2022-08-01T02:49:35;18.50;99.90
37528;DHT22;23372;52.050;4.810;2022-08-01T02:52:04;18.60;99.90
37528;DHT22;23372;52.050;4.810;2022-08-01T02:54:33;18.50;99.90
37528;DHT22;23372;52.050;4.810;2022-08-01T02:57:00;18.50;99.90
37528;DHT22;23372;52.050;4.810;2022-08-01T02:59:28;18.40;99.90
37528;DHT22;23372;52.050;4.810;2022-08-01T03:01:56;18.50;99.90
37528;DHT22;23372;52.050;4.810;2022-08-01T03:04:25;18.40;99.90
37528;DHT22;23372;52.050;4.810;2022-08-01T03:06:52;18.40;99.90
37528;DHT22;23372;52.050;4.810;2022-08-01T03:09:19;18.40;99.90
37528;DHT22;23372;52.050;4.810;2022-08-01T03:11:46;18.40;99.90
37528;DHT22;23372;52.050;4.810;2022-08-01T03:14:13;18.40;99.90
37528;DHT22;23372;52.050;4.810;2022-08-01T03:16:42;18.40;99.90
37528;DHT22;23372;52.050;4.810;2022-08-01T03:19:09;18.40;99.90
37528;DHT22;23372;52.050;4.810;2022-08-01T03:21:35;18.40;99.90
37528;DHT22;23372;52.050;4.810;2022-08-01T03:24:04;18.30;99.90
37528;DHT22;23372;52.050;4.810;2022-08-01T03:26:33;18.30;99.90
37528;DHT22;23372;52.050;4.810;2022-08-01T03:29:03;18.30;99.90
37528;DHT22;23372;52.050;4.810;2022-08-01T03:31:37;18.20;99.90
37528;DHT22;23372;52.050;4.810;2022-08-01T03:34:04;18.30;99.90
37528;DHT22;23372;52.050;4.810;2022-08-01T03:36:32;18.30;99.90
37528;DHT22;23372;52.050;4.810;2022-08-01T03:39:02;18.20;99.90
37528;DHT22;23372;52.050;4.810;2022-08-01T03:41:32;18.30;99.90
37528;DHT22;23372;52.050;4.810;2022-08-01T03:44:06;18.20;99.90
37528;DHT22;23372;52.050;4.810;2022-08-01T03:46:45;18.30;99.90
37528;DHT22;23372;52.050;4.810;2022-08-01T03:49:15;18.30;99.90
37528;DHT22;23372;52.050;4.810;2022-08-01T03:51:43;18.30;99.90
37528;DHT22;23372;52.050;4.810;2022-08-01T03:54:10;18.30;99.90
37528;DHT22;23372;52.050;4.810;2022-08-01T03:56:37;18.30;99.90
37528;DHT22;23372;52.050;4.810;2022-08-01T03:59:04;18.30;99.90
37528;DHT22;23372;52.050;4.810;2022-08-01T04:01:31;18.30;99.90
37528;DHT22;23372;52.050;4.810;2022-08-01T04:03:59;18.40;99.90
37528;DHT22;23372;52.050;4.810;2022-08-01T04:06:24;18.30;99.90
37528;DHT22;23372;52.050;4.810;2022-08-01T04:08:50;18.20;99.90
37528;DHT22;23372;52.050;4.810;2022-08-01T04:11:24;18.10;99.90
37528;DHT22;23372;52.050;4.810;2022-08-01T04:13:51;18.20;99.90
37528;DHT22;23372;52.050;4.810;2022-08-01T04:16:17;18.10;99.90
37528;DHT22;23372;52.050;4.810;2022-08-01T04:18:42;18.10;99.90
37528;DHT22;23372;52.050;4.810;2022-08-01T04:21:08;18.10;99.90
37528;DHT22;23372;52.050;4.810;2022-08-01T04:23:34;18.20;99.90
37528;DHT22;23372;52.050;4.810;2022-08-01T04:26:02;18.20;99.90
37528;DHT22;23372;52.050;4.810;2022-08-01T04:28:31;18.30;99.90
37528;DHT22;23372;52.050;4.810;2022-08-01T04:30:57;18.30;99.90
37528;DHT22;23372;52.050;4.810;2022-08-01T04:33:25;18.30;99.90
37528;DHT22;23372;52.050;4.810;2022-08-01T04:35:52;18.40;99.90
37528;DHT22;23372;52.050;4.810;2022-08-01T04:38:21;18.40;99.90
37528;DHT22;23372;52.050;4.810;2022-08-01T04:40:48;18.40;99.90
37528;DHT22;23372;52.050;4.810;2022-08-01T04:43:15;18.50;99.90
37528;DHT22;23372;52.050;4.810;2022-08-01T04:45:42;18.60;99.90
37528;DHT22;23372;52.050;4.810;2022-08-01T04:48:10;18.60;99.90
37528;DHT22;23372;52.050;4.810;2022-08-01T04:50:36;18.60;99.90
37528;DHT22;23372;52.050;4.810;2022-08-01T04:53:02;18.60;99.90
37528;DHT22;23372;52.050;4.810;2022-08-01T04:55:28;18.70;99.90
37528;DHT22;23372;52.050;4.810;2022-08-01T04:57:54;18.60;99.90
37528;DHT22;23372;52.050;4.810;2022-08-01T05:00:19;18.60;99.90
37528;DHT22;23372;52.050;4.810;2022-08-01T05:02:45;18.60;99.90
37528;DHT22;23372;52.050;4.810;2022-08-01T05:05:11;18.50;99.90
37528;DHT22;23372;52.050;4.810;2022-08-01T05:07:37;18.60;99.90
37528;DHT22;23372;52.050;4.810;2022-08-01T05:10:04;18.60;99.90
37528;DHT22;23372;52.050;4.810;2022-08-01T05:12:30;18.70;99.90
37528;DHT22;23372;52.050;4.810;2022-08-01T05:14:57;18.70;99.90
37528;DHT22;23372;52.050;4.810;2022-08-01T05:17:23;18.70;99.90
37528;DHT22;23372;52.050;4.810;2022-08-01T05:19:48;18.70;99.90
37528;DHT22;23372;52.050;4.810;2022-08-01T05:22:14;18.80;99.90
37528;DHT22;23372;52.050;4.810;2022-08-01T05:24:40;18.80;99.90
37528;DHT22;23372;52.050;4.810;2022-08-01T05:27:06;18.80;99.90
37528;DHT22;23372;52.050;4.810;2022-08-01T05:29:33;18.90;99.90
37528;DHT22;23372;52.050;4.810;2022-08-01T05:31:59;18.90;99.90
37528;DHT22;23372;52.050;4.810;2022-08-01T05:34:25;18.90;99.90
37528;DHT22;23372;52.050;4.810;2022-08-01T05:36:51;19.10;99.90
37528;DHT22;23372;52.050;4.810;2022-08-01T05:39:17;19.10;99.90
37528;DHT22;23372;52.050;4.810;2022-08-01T05:41:42;19.10;99.90
37528;DHT22;23372;52.050;4.810;2022-08-01T05:44:08;19.10;99.90
37528;DHT22;23372;52.050;4.810;2022-08-01T05:46:34;19.00;99.90
37528;DHT22;23372;52.050;4.810;2022-08-01T05:49:01;19.10;99.90
37528;DHT22;23372;52.050;4.810;2022-08-01T05:51:27;19.20;99.90
37528;DHT22;23372;52.050;4.810;2022-08-01T05:53:53;19.20;99.90
37528;DHT22;23372;52.050;4.810;2022-08-01T05:56:20;19.20;99.90
37528;DHT22;23372;52.050;4.810;2022-08-01T05:58:46;19.30;99.90
37528;DHT22;23372;52.050;4.810;2022-08-01T06:01:11;19.40;99.90
37528;DHT22;23372;52.050;4.810;2022-08-01T06:03:37;19.30;99.90
37528;DHT22;23372;52.050;4.810;2022-08-01T06:06:03;19.30;99.90
37528;DHT22;23372;52.050;4.810;2022-08-01T06:08:29;19.30;99.90
37528;DHT22;23372;52.050;4.810;2022-08-01T06:10:55;19.30;99.90
37528;DHT22;23372;52.050;4.810;2022-08-01T06:13:21;19.30;99.90
37528;DHT22;23372;52.050;4.810;2022-08-01T06:15:47;19.30;99.90
37528;DHT22;23372;52.050;4.810;2022-08-01T06:18:13;19.20;99.90
37528;DHT22;23372;52.050;4.810;2022-08-01T06:20:39;19.20;99.90
37528;DHT22;23372;52.050;4.810;2022-08-01T06:23:04;19.20;99.90
37528;DHT22;23372;52.050;4.810;2022-08-01T06:25:30;19.20;99.90
37528;DHT22;23372;52.050;4.810;2022-08-01T06:27:56;19.20;99.90
37528;DHT22;23372;52.050;4.810;2022-08-01T06:30:22;19.30;99.90
37528;DHT22;23372;52.050;4.810;2022-08-01T06:32:47;19.20;99.90
37528;DHT22;23372;52.050;4.810;2022-08-01T06:35:14;19.30;99.90
37528;DHT22;23372;52.050;4.810;2022-08-01T06:37:39;19.10;99.90
37528;DHT22;23372;52.050;4.810;2022-08-01T06:40:07;19.00;99.90
37528;DHT22;23372;52.050;4.810;2022-08-01T06:42:33;18.90;99.90
37528;DHT22;23372;52.050;4.810;2022-08-01T06:45:07;18.80;99.90
37528;DHT22;23372;52.050;4.810;2022-08-01T06:47:33;18.60;99.90
37528;DHT22;23372;52.050;4.810;2022-08-01T06:49:59;18.60;99.90
37528;DHT22;23372;52.050;4.810;2022-08-01T06:52:25;18.60;99.90
37528;DHT22;23372;52.050;4.810;2022-08-01T06:54:50;18.70;99.90
37528;DHT22;23372;52.050;4.810;2022-08-01T06:57:16;18.60;99.90
37528;DHT22;23372;52.050;4.810;2022-08-01T06:59:42;18.70;99.90
37528;DHT22;23372;52.050;4.810;2022-08-01T07:02:07;18.60;99.90
37528;DHT22;23372;52.050;4.810;2022-08-01T07:04:33;18.60;99.90
37528;DHT22;23372;52.050;4.810;2022-08-01T07:06:59;18.60;99.90
37528;DHT22;23372;52.050;4.810;2022-08-01T07:09:26;18.70;99.90
37528;DHT22;23372;52.050;4.810;2022-08-01T07:11:51;18.60;99.90
37528;DHT22;23372;52.050;4.810;2022-08-01T07:14:18;18.70;99.90
37528;DHT22;23372;52.050;4.810;2022-08-01T07:16:44;18.80;99.90
37528;DHT22;23372;52.050;4.810;2022-08-01T07:19:10;18.70;99.90
37528;DHT22;23372;52.050;4.810;2022-08-01T07:21:36;18.70;99.90
37528;DHT22;23372;52.050;4.810;2022-08-01T07:24:01;18.70;99.90
37528;DHT22;23372;52.050;4.810;2022-08-01T07:26:27;18.70;99.90
37528;DHT22;23372;52.050;4.810;2022-08-01T07:28:53;18.60;99.90
37528;DHT22;23372;52.050;4.810;2022-08-01T07:31:19;18.50;99.90
37528;DHT22;23372;52.050;4.810;2022-08-01T07:33:44;18.50;99.90
37528;DHT22;23372;52.050;4.810;2022-08-01T07:36:10;18.50;99.90
37528;DHT22;23372;52.050;4.810;2022-08-01T07:38:36;18.50;99.90
37528;DHT22;23372;52.050;4.810;2022-08-01T07:41:01;18.60;99.90
37528;DHT22;23372;52.050;4.810;2022-08-01T07:43:28;18.50;99.90
37528;DHT22;23372;52.050;4.810;2022-08-01T07:45:53;18.60;99.90
37528;DHT22;23372;52.050;4.810;2022-08-01T07:48:19;18.60;99.90
37528;DHT22;23372;52.050;4.810;2022-08-01T07:50:49;18.80;99.90
37528;DHT22;23372;52.050;4.810;2022-08-01T07:53:15;18.70;99.90
37528;DHT22;23372;52.050;4.810;2022-08-01T07:55:40;18.70;99.90
37528;DHT22;23372;52.050;4.810;2022-08-01T07:58:06;18.80;99.90
37528;DHT22;23372;52.050;4.810;2022-08-01T08:00:31;18.90;99.90
37528;DHT22;23372;52.050;4.810;2022-08-01T08:02:57;19.00;99.90
37528;DHT22;23372;52.050;4.810;2022-08-01T08:05:25;19.00;99.90
37528;DHT22;23372;52.050;4.810;2022-08-01T08:07:50;19.10;99.90
37528;DHT22;23372;52.050;4.810;2022-08-01T08:10:16;19.10;99.90
37528;DHT22;23372;52.050;4.810;2022-08-01T08:12:41;19.20;99.90
37528;DHT22;23372;52.050;4.810;2022-08-01T08:15:07;19.30;99.90
37528;DHT22;23372;52.050;4.810;2022-08-01T08:17:33;19.30;99.90
37528;DHT22;23372;52.050;4.810;2022-08-01T08:19:59;19.20;99.90
37528;DHT22;23372;52.050;4.810;2022-08-01T08:22:24;19.30;99.90
37528;DHT22;23372;52.050;4.810;2022-08-01T08:24:50;19.40;99.90
37528;DHT22;23372;52.050;4.810;2022-08-01T08:27:15;19.50;99.90
37528;DHT22;23372;52.050;4.810;2022-08-01T08:29:41;19.50;99.90
37528;DHT22;23372;52.050;4.810;2022-08-01T08:32:07;19.50;99.90
37528;DHT22;23372;52.050;4.810;2022-08-01T08:34:33;19.60;99.90
37528;DHT22;23372;52.050;4.810;2022-08-01T08:36:59;19.60;99.90
37528;DHT22;23372;52.050;4.810;2022-08-01T08:39:25;19.60;99.90
37528;DHT22;23372;52.050;4.810;2022-08-01T08:41:51;19.80;99.90
37528;DHT22;23372;52.050;4.810;2022-08-01T08:44:17;19.90;99.90
37528;DHT22;23372;52.050;4.810;2022-08-01T08:46:45;20.00;99.90
37528;DHT22;23372;52.050;4.810;2022-08-01T08:49:15;20.00;99.90
37528;DHT22;23372;52.050;4.810;2022-08-01T08:51:42;20.10;99.90
37528;DHT22;23372;52.050;4.810;2022-08-01T08:54:11;20.20;99.90
37528;DHT22;23372;52.050;4.810;2022-08-01T08:56:38;20.30;99.90
37528;DHT22;23372;52.050;4.810;2022-08-01T08:59:04;20.50;99.90
37528;DHT22;23372;52.050;4.810;2022-08-01T09:01:31;20.50;99.90
37528;DHT22;23372;52.050;4.810;2022-08-01T09:04:01;20.50;99.90
37528;DHT22;23372;52.050;4.810;2022-08-01T09:06:27;20.50;99.90
37528;DHT22;23372;52.050;4.810;2022-08-01T09:08:55;20.60;99.90
37528;DHT22;23372;52.050;4.810;2022-08-01T09:11:20;20.60;99.90
37528;DHT22;23372;52.050;4.810;2022-08-01T09:14:12;20.60;99.90
37528;DHT22;23372;52.050;4.810;2022-08-01T09:16:43;20.80;99.90
37528;DHT22;23372;52.050;4.810;2022-08-01T09:19:15;20.80;99.90
37528;DHT22;23372;52.050;4.810;2022-08-01T09:22:02;20.80;99.90
37528;DHT22;23372;52.050;4.810;2022-08-01T09:24:30;20.90;99.90
37528;DHT22;23372;52.050;4.810;2022-08-01T09:26:56;21.00;99.90
37528;DHT22;23372;52.050;4.810;2022-08-01T09:29:24;21.10;99.90
37528;DHT22;23372;52.050;4.810;2022-08-01T09:31:50;21.20;99.90
37528;DHT22;23372;52.050;4.810;2022-08-01T09:34:27;21.10;99.90
37528;DHT22;23372;52.050;4.810;2022-08-01T09:39:23;21.10;99.90
37528;DHT22;23372;52.050;4.810;2022-08-01T09:41:49;21.20;99.90
37528;DHT22;23372;52.050;4.810;2022-08-01T09:44:17;21.40;99.90
37528;DHT22;23372;52.050;4.810;2022-08-01T09:47:09;21.70;99.90
37528;DHT22;23372;52.050;4.810;2022-08-01T09:49:37;21.70;99.90
37528;DHT22;23372;52.050;4.810;2022-08-01T09:52:21;21.50;99.90
37528;DHT22;23372;52.050;4.810;2022-08-01T09:55:01;21.60;99.90
37528;DHT22;23372;52.050;4.810;2022-08-01T09:57:28;21.90;99.90
37528;DHT22;23372;52.050;4.810;2022-08-01T09:59:56;22.30;99.90
37528;DHT22;23372;52.050;4.810;2022-08-01T10:02:29;22.60;99.90
37528;DHT22;23372;52.050;4.810;2022-08-01T10:04:54;22.20;99.90
37528;DHT22;23372;52.050;4.810;2022-08-01T10:07:21;22.00;99.90
37528;DHT22;23372;52.050;4.810;2022-08-01T10:09:47;21.80;99.90
37528;DHT22;23372;52.050;4.810;2022-08-01T10:12:19;22.00;99.90
37528;DHT22;23372;52.050;4.810;2022-08-01T10:14:47;22.00;99.90
37528;DHT22;23372;52.050;4.810;2022-08-01T10:17:16;21.90;99.90
37528;DHT22;23372;52.050;4.810;2022-08-01T10:19:43;22.30;99.90
37528;DHT22;23372;52.050;4.810;2022-08-01T10:22:10;22.50;99.90
37528;DHT22;23372;52.050;4.810;2022-08-01T10:24:40;22.50;99.90
37528;DHT22;23372;52.050;4.810;2022-08-01T10:27:08;22.50;99.90
37528;DHT22;23372;52.050;4.810;2022-08-01T10:29:49;22.50;99.90
37528;DHT22;23372;52.050;4.810;2022-08-01T10:32:16;22.50;99.90
37528;DHT22;23372;52.050;4.810;2022-08-01T10:34:42;22.70;99.90
37528;DHT22;23372;52.050;4.810;2022-08-01T10:37:08;23.00;99.90
37528;DHT22;23372;52.050;4.810;2022-08-01T10:39:35;23.10;99.90
37528;DHT22;23372;52.050;4.810;2022-08-01T10:42:01;23.00;99.90
37528;DHT22;23372;52.050;4.810;2022-08-01T10:44:28;22.70;99.90
37528;DHT22;23372;52.050;4.810;2022-08-01T10:47:08;22.70;99.90
37528;DHT22;23372;52.050;4.810;2022-08-01T10:49:41;23.00;99.90
37528;DHT22;23372;52.050;4.810;2022-08-01T10:52:14;23.10;99.90
37528;DHT22;23372;52.050;4.810;2022-08-01T10:54:40;23.10;99.90
37528;DHT22;23372;52.050;4.810;2022-08-01T10:57:06;23.20;99.90
37528;DHT22;23372;52.050;4.810;2022-08-01T10:59:32;23.20;99.90
37528;DHT22;23372;52.050;4.810;2022-08-01T11:02:01;23.10;99.90
37528;DHT22;23372;52.050;4.810;2022-08-01T11:07:13;23.00;99.90
37528;DHT22;23372;52.050;4.810;2022-08-01T11:09:46;22.70;99.90
37528;DHT22;23372;52.050;4.810;2022-08-01T11:12:17;22.60;99.90
37528;DHT22;23372;52.050;4.810;2022-08-01T11:17:37;23.30;99.90
37528;DHT22;23372;52.050;4.810;2022-08-01T11:20:14;23.40;99.90
37528;DHT22;23372;52.050;4.810;2022-08-01T11:25:26;23.40;99.90
37528;DHT22;23372;52.050;4.810;2022-08-01T11:30:40;23.90;99.90
37528;DHT22;23372;52.050;4.810;2022-08-01T11:33:06;24.20;99.90
37528;DHT22;23372;52.050;4.810;2022-08-01T11:35:32;24.30;99.90
37528;DHT22;23372;52.050;4.810;2022-08-01T11:38:24;24.50;99.90
37528;DHT22;23372;52.050;4.810;2022-08-01T11:41:12;24.20;99.90
37528;DHT22;23372;52.050;4.810;2022-08-01T11:44:10;23.50;99.90
37528;DHT22;23372;52.050;4.810;2022-08-01T11:54:34;24.20;99.90
37528;DHT22;23372;52.050;4.810;2022-08-01T11:57:06;24.40;99.90
37528;DHT22;23372;52.050;4.810;2022-08-01T11:59:42;24.40;99.90
37528;DHT22;23372;52.050;4.810;2022-08-01T12:02:16;24.50;99.90
37528;DHT22;23372;52.050;4.810;2022-08-01T12:04:49;24.70;99.90
37528;DHT22;23372;52.050;4.810;2022-08-01T12:07:17;24.90;99.90
37528;DHT22;23372;52.050;4.810;2022-08-01T12:09:43;24.80;99.90
37528;DHT22;23372;52.050;4.810;2022-08-01T12:12:09;25.20;99.90
37528;DHT22;23372;52.050;4.810;2022-08-01T12:14:35;25.40;99.90
37528;DHT22;23372;52.050;4.810;2022-08-01T12:17:00;25.40;99.90
37528;DHT22;23372;52.050;4.810;2022-08-01T12:19:26;25.70;99.90
37528;DHT22;23372;52.050;4.810;2022-08-01T12:22:12;25.80;99.90
37528;DHT22;23372;52.050;4.810;2022-08-01T12:24:40;25.50;99.90
37528;DHT22;23372;52.050;4.810;2022-08-01T12:27:08;25.30;99.90
37528;DHT22;23372;52.050;4.810;2022-08-01T12:29:39;25.10;99.90
37528;DHT22;23372;52.050;4.810;2022-08-01T12:32:20;25.00;99.90
37528;DHT22;23372;52.050;4.810;2022-08-01T12:34:46;25.10;99.90
37528;DHT22;23372;52.050;4.810;2022-08-01T12:37:11;25.10;99.90
37528;DHT22;23372;52.050;4.810;2022-08-01T12:39:38;25.20;99.90
37528;DHT22;23372;52.050;4.810;2022-08-01T12:42:09;25.10;99.90
37528;DHT22;23372;52.050;4.810;2022-08-01T12:44:37;24.90;99.90
37528;DHT22;23372;52.050;4.810;2022-08-01T12:47:05;24.30;99.90
37528;DHT22;23372;52.050;4.810;2022-08-01T12:49:33;24.50;99.90
37528;DHT22;23372;52.050;4.810;2022-08-01T12:51:59;24.50;99.90
37528;DHT22;23372;52.050;4.810;2022-08-01T12:54:24;24.60;99.90
37528;DHT22;23372;52.050;4.810;2022-08-01T12:56:51;24.70;99.90
37528;DHT22;23372;52.050;4.810;2022-08-01T12:59:24;25.00;99.90
37528;DHT22;23372;52.050;4.810;2022-08-01T13:01:51;25.10;99.90
37528;DHT22;23372;52.050;4.810;2022-08-01T13:04:17;25.10;99.90
37528;DHT22;23372;52.050;4.810;2022-08-01T13:06:43;25.20;99.90
37528;DHT22;23372;52.050;4.810;2022-08-01T13:09:09;25.00;99.90
37528;DHT22;23372;52.050;4.810;2022-08-01T13:11:41;24.90;99.90
37528;DHT22;23372;52.050;4.810;2022-08-01T13:14:08;25.20;99.90
37528;DHT22;23372;52.050;4.810;2022-08-01T13:16:46;25.60;99.90
37528;DHT22;23372;52.050;4.810;2022-08-01T13:19:11;26.00;99.90
37528;DHT22;23372;52.050;4.810;2022-08-01T13:21:37;26.10;99.90
37528;DHT22;23372;52.050;4.810;2022-08-01T13:24:11;26.10;99.90
37528;DHT22;23372;52.050;4.810;2022-08-01T13:26:47;25.90;99.90
37528;DHT22;23372;52.050;4.810;2022-08-01T13:29:15;25.70;99.90
37528;DHT22;23372;52.050;4.810;2022-08-01T13:31:41;25.70;99.90
37528;DHT22;23372;52.050;4.810;2022-08-01T13:34:08;25.30;99.90
37528;DHT22;23372;52.050;4.810;2022-08-01T13:36:36;24.80;99.90
37528;DHT22;23372;52.050;4.810;2022-08-01T13:39:02;24.40;99.90
37528;DHT22;23372;52.050;4.810;2022-08-01T13:41:47;24.50;99.90
37528;DHT22;23372;52.050;4.810;2022-08-01T13:44:13;24.60;99.90
37528;DHT22;23372;52.050;4.810;2022-08-01T13:46:40;25.00;99.90
37528;DHT22;23372;52.050;4.810;2022-08-01T13:49:07;25.30;99.90
37528;DHT22;23372;52.050;4.810;2022-08-01T13:51:33;25.60;99.90
37528;DHT22;23372;52.050;4.810;2022-08-01T13:53:59;25.90;99.90
37528;DHT22;23372;52.050;4.810;2022-08-01T13:56:25;25.80;99.90
37528;DHT22;23372;52.050;4.810;2022-08-01T13:58:53;26.20;99.90
37528;DHT22;23372;52.050;4.810;2022-08-01T14:01:18;25.80;99.90
37528;DHT22;23372;52.050;4.810;2022-08-01T14:03:44;26.10;99.90
37528;DHT22;23372;52.050;4.810;2022-08-01T14:06:10;26.00;99.90
37528;DHT22;23372;52.050;4.810;2022-08-01T14:08:36;26.50;99.90
37528;DHT22;23372;52.050;4.810;2022-08-01T14:11:01;26.40;99.90
37528;DHT22;23372;52.050;4.810;2022-08-01T14:13:27;26.60;99.90
37528;DHT22;23372;52.050;4.810;2022-08-01T14:15:53;26.60;99.90
37528;DHT22;23372;52.050;4.810;2022-08-01T14:18:18;26.70;99.90
37528;DHT22;23372;52.050;4.810;2022-08-01T14:20:44;27.00;99.90
37528;DHT22;23372;52.050;4.810;2022-08-01T14:23:10;27.10;99.90
37528;DHT22;23372;52.050;4.810;2022-08-01T14:25:40;26.80;99.90
37528;DHT22;23372;52.050;4.810;2022-08-01T14:28:06;27.10;99.90
37528;DHT22;23372;52.050;4.810;2022-08-01T14:30:32;27.40;99.90
37528;DHT22;23372;52.050;4.810;2022-08-01T14:32:58;27.50;99.90
37528;DHT22;23372;52.050;4.810;2022-08-01T14:35:24;27.10;99.90
37528;DHT22;23372;52.050;4.810;2022-08-01T14:37:49;26.90;99.90
37528;DHT22;23372;52.050;4.810;2022-08-01T14:40:15;26.90;99.90
37528;DHT22;23372;52.050;4.810;2022-08-01T14:42:40;26.80;99.90
37528;DHT22;23372;52.050;4.810;2022-08-01T14:45:07;26.60;99.90
37528;DHT22;23372;52.050;4.810;2022-08-01T14:47:36;26.20;99.90
37528;DHT22;23372;52.050;4.810;2022-08-01T14:50:03;26.30;99.90
37528;DHT22;23372;52.050;4.810;2022-08-01T14:52:29;26.60;99.90
37528;DHT22;23372;52.050;4.810;2022-08-01T14:54:55;26.50;99.90
37528;DHT22;23372;52.050;4.810;2022-08-01T14:57:20;26.80;99.90
37528;DHT22;23372;52.050;4.810;2022-08-01T14:59:46;26.40;99.90
37528;DHT22;23372;52.050;4.810;2022-08-01T15:02:12;26.50;99.90
37528;DHT22;23372;52.050;4.810;2022-08-01T15:04:42;26.40;99.90
37528;DHT22;23372;52.050;4.810;2022-08-01T15:07:08;26.50;99.90
37528;DHT22;23372;52.050;4.810;2022-08-01T15:09:33;26.30;99.90
37528;DHT22;23372;52.050;4.810;2022-08-01T15:11:59;26.20;99.90
37528;DHT22;23372;52.050;4.810;2022-08-01T15:14:24;26.30;99.90
37528;DHT22;23372;52.050;4.810;2022-08-01T15:17:09;26.60;99.90
37528;DHT22;23372;52.050;4.810;2022-08-01T15:19:34;26.90;99.90
37528;DHT22;23372;52.050;4.810;2022-08-01T15:21:59;26.80;99.90
37528;DHT22;23372;52.050;4.810;2022-08-01T15:24:25;26.80;99.90
37528;DHT22;23372;52.050;4.810;2022-08-01T15:26:50;26.70;99.90
37528;DHT22;23372;52.050;4.810;2022-08-01T15:29:16;26.40;99.90
37528;DHT22;23372;52.050;4.810;2022-08-01T15:31:42;26.10;99.90
37528;DHT22;23372;52.050;4.810;2022-08-01T15:34:07;25.70;99.90
37528;DHT22;23372;52.050;4.810;2022-08-01T15:36:33;26.00;99.90
37528;DHT22;23372;52.050;4.810;2022-08-01T15:38:58;26.20;99.90
37528;DHT22;23372;52.050;4.810;2022-08-01T15:41:24;26.00;99.90
37528;DHT22;23372;52.050;4.810;2022-08-01T15:43:50;26.00;99.90
37528;DHT22;23372;52.050;4.810;2022-08-01T15:46:15;26.00;99.90
37528;DHT22;23372;52.050;4.810;2022-08-01T15:48:41;26.00;99.90
37528;DHT22;23372;52.050;4.810;2022-08-01T15:51:07;25.60;99.90
37528;DHT22;23372;52.050;4.810;2022-08-01T15:53:33;25.20;99.90
37528;DHT22;23372;52.050;4.810;2022-08-01T15:55:58;25.20;99.90
37528;DHT22;23372;52.050;4.810;2022-08-01T15:58:24;25.20;99.90
37528;DHT22;23372;52.050;4.810;2022-08-01T16:00:50;25.00;99.90
37528;DHT22;23372;52.050;4.810;2022-08-01T16:03:16;25.10;99.90
37528;DHT22;23372;52.050;4.810;2022-08-01T16:05:41;25.10;99.90